sensor_id;sensor_type;location;lat;lon;timestamp;pressure;altitude;pressure_sealevel;temperature;humidity
9839;BME280;4958;48.150;11.506;2023-05-16T00:02:07;95219.16;;;13.28;84.39
9839;BME280;4958;48.150;11.506;2023-05-16T00:04:34;95213.78;;;13.29;84.24
9839;BME280;4958;48.150;11.506;2023-05-16T00:07:01;95212.63;;;13.25;84.20
9839;BME280;4958;48.150;11.506;2023-05-16T00:09:27;95217.19;;;13.23;84.15
9839;BME280;4958;48.150;11.506;2023-05-16T00:11:53;95213.63;;;13.24;84.20
9839;BME280;4958;48.150;11.506;2023-05-16T00:14:20;95213.97;;;13.28;84.19
9839;BME280;4958;48.150;11.506;2023-05-16T00:16:48;95212.03;;;13.23;84.39
9839;BME280;4958;48.150;11.506;2023-05-16T00:19:17;95208.44;;;13.18;84.33
9839;BME280;4958;48.150;11.506;2023-05-16T00:21:44;95209.63;;;13.15;84.72
9839;BME280;4958;48.150;11.506;2023-05-16T00:24:10;95201.69;;;13.17;84.62
9839;BME280;4958;48.150;11.506;2023-05-16T00:26:39;95207.44;;;13.19;84.67
9839;BME280;4958;48.150;11.506;2023-05-16T00:29:07;95206.06;;;13.23;84.63
9839;BME280;4958;48.150;11.506;2023-05-16T00:31:33;95200.28;;;13.27;84.44
9839;BME280;4958;48.150;11.506;2023-05-16T00:34:01;95197.69;;;13.27;84.13
9839;BME280;4958;48.150;11.506;2023-05-16T00:36:28;95199.09;;;13.23;84.49
9839;BME280;4958;48.150;11.506;2023-05-16T00:38:55;95188.97;;;13.15;84.51
9839;BME280;4958;48.150;11.506;2023-05-16T00:41:22;95193.72;;;13.18;84.48
9839;BME280;4958;48.150;11.506;2023-05-16T00:43:52;95194.53;;;13.19;84.87
9839;BME280;4958;48.150;11.506;2023-05-16T00:46:18;95191.75;;;13.07;84.92
9839;BME280;4958;48.150;11.506;2023-05-16T00:48:45;95197.50;;;13.02;85.13
9839;BME280;4958;48.150;11.506;2023-05-16T00:51:13;95198.50;;;13.08;85.07
9839;BME280;4958;48.150;11.506;2023-05-16T00:53:42;95190.31;;;13.11;84.78
9839;BME280;4958;48.150;11.506;2023-05-16T00:56:09;95193.31;;;13.14;84.97
9839;BME280;4958;48.150;11.506;2023-05-16T00:58:36;95195.69;;;13.09;84.90
9839;BME280;4958;48.150;11.506;2023-05-16T01:01:02;95200.28;;;13.07;84.87
9839;BME280;4958;48.150;11.506;2023-05-16T01:03:32;95196.31;;;13.05;85.11
9839;BME280;4958;48.150;11.506;2023-05-16T01:06:02;95200.50;;;12.99;85.49
9839;BME280;4958;48.150;11.506;2023-05-16T01:08:30;95201.28;;;13.00;85.50
9839;BME280;4958;48.150;11.506;2023-05-16T01:11:02;95197.09;;;13.05;85.31
9839;BME280;4958;48.150;11.506;2023-05-16T01:13:43;95197.91;;;13.06;85.18
9839;BME280;4958;48.150;11.506;2023-05-16T01:16:16;95194.53;;;13.05;85.82
9839;BME280;4958;48.150;11.506;2023-05-16T01:18:51;95194.88;;;13.09;85.26
9839;BME280;4958;48.150;11.506;2023-05-16T01:21:33;95188.34;;;13.13;85.53
9839;BME280;4958;48.150;11.506;2023-05-16T01:24:12;95188.97;;;13.15;85.47
9839;BME280;4958;48.150;11.506;2023-05-16T01:26:42;95191.34;;;13.17;85.26
9839;BME280;4958;48.150;11.506;2023-05-16T01:29:09;95186.97;;;13.17;84.84
9839;BME280;4958;48.150;11.506;2023-05-16T01:31:35;95184.38;;;13.17;85.16
9839;BME280;4958;48.150;11.506;2023-05-16T01:34:02;95179.78;;;13.12;84.99
9839;BME280;4958;48.150;11.506;2023-05-16T01:36:33;95184.59;;;13.16;85.12
9839;BME280;4958;48.150;11.506;2023-05-16T01:39:06;95181.19;;;13.15;85.38
9839;BME280;4958;48.150;11.506;2023-05-16T01:41:42;95181.00;;;13.17;85.27
9839;BME280;4958;48.150;11.506;2023-05-16T01:44:17;95179.41;;;13.16;85.22
9839;BME280;4958;48.150;11.506;2023-05-16T01:46:45;95179.19;;;13.10;85.43
9839;BME280;4958;48.150;11.506;2023-05-16T01:49:15;95179.63;;;13.01;85.79
9839;BME280;4958;48.150;11.506;2023-05-16T01:51:49;95168.28;;;13.02;85.91
9839;BME280;4958;48.150;11.506;2023-05-16T01:54:17;95165.31;;;13.05;85.67
9839;BME280;4958;48.150;11.506;2023-05-16T01:56:50;95163.88;;;13.09;85.43
9839;BME280;4958;48.150;11.506;2023-05-16T01:59:17;95172.81;;;13.13;85.16
9839;BME280;4958;48.150;11.506;2023-05-16T02:01:44;95168.47;;;13.07;85.38
9839;BME280;4958;48.150;11.506;2023-05-16T02:04:11;95167.88;;;13.05;85.30
9839;BME280;4958;48.150;11.506;2023-05-16T02:06:39;95167.50;;;13.01;85.42
9839;BME280;4958;48.150;11.506;2023-05-16T02:09:06;95174.25;;;13.02;85.78
9839;BME280;4958;48.150;11.506;2023-05-16T02:11:32;95168.69;;;12.99;85.81
9839;BME280;4958;48.150;11.506;2023-05-16T02:14:00;95179.41;;;12.96;86.13
9839;BME280;4958;48.150;11.506;2023-05-16T02:16:28;95159.72;;;12.95;86.15
9839;BME280;4958;48.150;11.506;2023-05-16T02:18:55;95176.06;;;12.89;86.60
9839;BME280;4958;48.150;11.506;2023-05-16T02:21:21;95175.03;;;12.90;86.66
9839;BME280;4958;48.150;11.506;2023-05-16T02:23:48;95176.06;;;12.89;86.20
9839;BME280;4958;48.150;11.506;2023-05-16T02:26:16;95180.59;;;12.93;86.28
9839;BME280;4958;48.150;11.506;2023-05-16T02:28:42;95182.19;;;12.94;86.45
9839;BME280;4958;48.150;11.506;2023-05-16T02:31:10;95183.38;;;12.92;86.16
9839;BME280;4958;48.150;11.506;2023-05-16T02:33:36;95182.00;;;12.96;85.86
9839;BME280;4958;48.150;11.506;2023-05-16T02:36:03;95182.00;;;12.96;85.81
9839;BME280;4958;48.150;11.506;2023-05-16T02:38:30;95180.81;;;12.98;85.62
9839;BME280;4958;48.150;11.506;2023-05-16T02:40:56;95182.59;;;12.98;85.70
9839;BME280;4958;48.150;11.506;2023-05-16T02:43:23;95183.38;;;12.98;85.53
9839;BME280;4958;48.150;11.506;2023-05-16T02:45:49;95176.25;;;12.87;85.55
9839;BME280;4958;48.150;11.506;2023-05-16T02:48:17;95176.84;;;12.83;85.81
9839;BME280;4958;48.150;11.506;2023-05-16T02:50:43;95179.03;;;12.72;86.12
9839;BME280;4958;48.150;11.506;2023-05-16T02:53:10;95186.78;;;12.79;85.95
9839;BME280;4958;48.150;11.506;2023-05-16T02:55:37;95182.81;;;12.83;85.90
9839;BME280;4958;48.150;11.506;2023-05-16T02:58:04;95178.03;;;12.87;85.47
9839;BME280;4958;48.150;11.506;2023-05-16T03:00:30;95174.84;;;12.91;85.12
9839;BME280;4958;48.150;11.506;2023-05-16T03:02:57;95179.22;;;12.91;85.42
9839;BME280;4958;48.150;11.506;2023-05-16T03:05:24;95171.06;;;12.94;85.29
9839;BME280;4958;48.150;11.506;2023-05-16T03:07:51;95175.25;;;12.95;85.32
9839;BME280;4958;48.150;11.506;2023-05-16T03:10:17;95177.22;;;12.93;85.26
9839;BME280;4958;48.150;11.506;2023-05-16T03:12:43;95178.41;;;12.90;85.41
9839;BME280;4958;48.150;11.506;2023-05-16T03:15:10;95172.47;;;12.90;85.33
9839;BME280;4958;48.150;11.506;2023-05-16T03:17:36;95170.50;;;12.85;85.63
9839;BME280;4958;48.150;11.506;2023-05-16T03:20:03;95177.44;;;12.85;85.38
9839;BME280;4958;48.150;11.506;2023-05-16T03:22:34;95173.88;;;12.72;86.29
9839;BME280;4958;48.150;11.506;2023-05-16T03:25:00;95172.88;;;12.80;85.86
9839;BME280;4958;48.150;11.506;2023-05-16T03:27:27;95176.06;;;12.82;85.97
9839;BME280;4958;48.150;11.506;2023-05-16T03:29:53;95174.28;;;12.83;85.61
9839;BME280;4958;48.150;11.506;2023-05-16T03:32:20;95170.88;;;12.82;85.34
9839;BME280;4958;48.150;11.506;2023-05-16T03:34:46;95172.66;;;12.75;85.95
9839;BME280;4958;48.150;11.506;2023-05-16T03:37:12;95178.81;;;12.74;86.12
9839;BME280;4958;48.150;11.506;2023-05-16T03:39:41;95174.66;;;12.79;85.93
9839;BME280;4958;48.150;11.506;2023-05-16T03:42:07;95174.47;;;12.81;85.80
9839;BME280;4958;48.150;11.506;2023-05-16T03:44:34;95171.69;;;12.83;85.71
9839;BME280;4958;48.150;11.506;2023-05-16T03:47:00;95172.28;;;12.85;85.53
9839;BME280;4958;48.150;11.506;2023-05-16T03:49:27;95172.88;;;12.87;85.47
9839;BME280;4958;48.150;11.506;2023-05-16T03:51:53;95176.84;;;12.89;85.23
9839;BME280;4958;48.150;11.506;2023-05-16T03:54:22;95173.28;;;12.77;85.89
9839;BME280;4958;48.150;11.506;2023-05-16T03:56:50;95168.09;;;12.77;85.99
9839;BME280;4958;48.150;11.506;2023-05-16T03:59:16;95167.69;;;12.73;86.55
9839;BME280;4958;48.150;11.506;2023-05-16T04:01:43;95168.91;;;12.77;85.85
9839;BME280;4958;48.150;11.506;2023-05-16T04:04:09;95176.06;;;12.75;85.83
9839;BME280;4958;48.150;11.506;2023-05-16T04:06:36;95169.88;;;12.76;85.81
9839;BME280;4958;48.150;11.506;2023-05-16T04:09:03;95170.69;;;12.77;85.86
9839;BME280;4958;48.150;11.506;2023-05-16T04:11:30;95175.84;;;12.77;86.13
9839;BME280;4958;48.150;11.506;2023-05-16T04:13:59;95171.69;;;12.69;87.25
9839;BME280;4958;48.150;11.506;2023-05-16T04:16:26;95172.50;;;12.63;88.37
9839;BME280;4958;48.150;11.506;2023-05-16T04:18:52;95167.50;;;12.55;89.34
9839;BME280;4958;48.150;11.506;2023-05-16T04:21:20;95168.69;;;12.53;89.28
9839;BME280;4958;48.150;11.506;2023-05-16T04:23:46;95175.66;;;12.45;89.35
9839;BME280;4958;48.150;11.506;2023-05-16T04:26:13;95167.50;;;12.55;88.44
9839;BME280;4958;48.150;11.506;2023-05-16T04:28:39;95178.81;;;12.54;88.42
9839;BME280;4958;48.150;11.506;2023-05-16T04:31:07;95184.00;;;12.61;87.33
9839;BME280;4958;48.150;11.506;2023-05-16T04:33:35;95176.84;;;12.63;86.37
9839;BME280;4958;48.150;11.506;2023-05-16T04:36:02;95174.09;;;12.64;86.19
9839;BME280;4958;48.150;11.506;2023-05-16T04:38:30;95185.81;;;12.67;85.44
9839;BME280;4958;48.150;11.506;2023-05-16T04:40:56;95185.19;;;12.71;85.27
9839;BME280;4958;48.150;11.506;2023-05-16T04:43:23;95184.00;;;12.74;84.47
9839;BME280;4958;48.150;11.506;2023-05-16T04:45:50;95184.59;;;12.76;84.76
9839;BME280;4958;48.150;11.506;2023-05-16T04:48:19;95187.19;;;12.83;84.48
9839;BME280;4958;48.150;11.506;2023-05-16T04:50:46;95171.69;;;12.83;84.21
9839;BME280;4958;48.150;11.506;2023-05-16T04:53:15;95175.25;;;12.88;84.41
9839;BME280;4958;48.150;11.506;2023-05-16T04:55:42;95178.81;;;12.94;84.29
9839;BME280;4958;48.150;11.506;2023-05-16T04:58:08;95181.00;;;12.97;84.21
9839;BME280;4958;48.150;11.506;2023-05-16T05:00:37;95185.78;;;13.00;83.67
9839;BME280;4958;48.150;11.506;2023-05-16T05:03:04;95175.44;;;12.93;84.74
9839;BME280;4958;48.150;11.506;2023-05-16T05:05:42;95176.63;;;12.97;84.59
9839;BME280;4958;48.150;11.506;2023-05-16T05:08:09;95180.41;;;13.01;84.52
9839;BME280;4958;48.150;11.506;2023-05-16T05:10:54;95169.88;;;13.03;84.58
9839;BME280;4958;48.150;11.506;2023-05-16T05:13:21;95183.78;;;12.95;85.48
9839;BME280;4958;48.150;11.506;2023-05-16T05:15:54;95187.75;;;12.98;85.47
9839;BME280;4958;48.150;11.506;2023-05-16T05:18:35;95181.19;;;13.02;85.26
9839;BME280;4958;48.150;11.506;2023-05-16T05:21:03;95181.59;;;13.05;84.49
9839;BME280;4958;48.150;11.506;2023-05-16T05:23:30;95187.56;;;13.06;85.07
9839;BME280;4958;48.150;11.506;2023-05-16T05:25:57;95183.38;;;13.05;83.90
9839;BME280;4958;48.150;11.506;2023-05-16T05:28:23;95196.69;;;13.08;83.86
9839;BME280;4958;48.150;11.506;2023-05-16T05:30:55;95188.34;;;13.06;84.83
9839;BME280;4958;48.150;11.506;2023-05-16T05:33:27;95189.16;;;13.07;84.21
9839;BME280;4958;48.150;11.506;2023-05-16T05:35:56;95186.94;;;13.10;84.38
9839;BME280;4958;48.150;11.506;2023-05-16T05:38:38;95184.97;;;12.99;84.10
9839;BME280;4958;48.150;11.506;2023-05-16T05:41:06;95183.78;;;12.95;84.23
9839;BME280;4958;48.150;11.506;2023-05-16T05:43:40;95182.03;;;12.89;84.50
9839;BME280;4958;48.150;11.506;2023-05-16T05:46:07;95180.00;;;12.91;84.65
9839;BME280;4958;48.150;11.506;2023-05-16T05:48:38;95177.63;;;12.90;85.28
9839;BME280;4958;48.150;11.506;2023-05-16T05:51:05;95184.38;;;12.91;85.20
9839;BME280;4958;48.150;11.506;2023-05-16T05:53:31;95173.84;;;12.92;84.80
9839;BME280;4958;48.150;11.506;2023-05-16T05:56:04;95171.09;;;12.87;84.49
9839;BME280;4958;48.150;11.506;2023-05-16T05:59:13;95174.28;;;12.89;84.35
9839;BME280;4958;48.150;11.506;2023-05-16T06:09:45;95180.44;;;12.88;85.93
9839;BME280;4958;48.150;11.506;2023-05-16T06:12:19;95173.47;;;12.82;86.47
9839;BME280;4958;48.150;11.506;2023-05-16T06:14:46;95165.31;;;12.78;86.42
9839;BME280;4958;48.150;11.506;2023-05-16T06:17:12;95164.94;;;12.88;85.84
9839;BME280;4958;48.150;11.506;2023-05-16T06:19:39;95168.09;;;12.90;85.61
9839;BME280;4958;48.150;11.506;2023-05-16T06:22:05;95170.09;;;12.88;86.21
9839;BME280;4958;48.150;11.506;2023-05-16T06:24:55;95169.50;;;12.86;86.57
9839;BME280;4958;48.150;11.506;2023-05-16T06:27:23;95177.25;;;12.86;86.53
9839;BME280;4958;48.150;11.506;2023-05-16T06:29:49;95181.41;;;12.94;85.91
9839;BME280;4958;48.150;11.506;2023-05-16T06:32:16;95178.03;;;13.00;85.39
9839;BME280;4958;48.150;11.506;2023-05-16T06:34:51;95174.22;;;13.09;85.39
9839;BME280;4958;48.150;11.506;2023-05-16T06:37:54;95175.59;;;13.11;86.65
9839;BME280;4958;48.150;11.506;2023-05-16T06:40:20;95172.84;;;13.20;86.60
9839;BME280;4958;48.150;11.506;2023-05-16T06:43:16;95179.59;;;13.27;86.18
9839;BME280;4958;48.150;11.506;2023-05-16T06:45:49;95179.16;;;13.37;86.94
9839;BME280;4958;48.150;11.506;2023-05-16T06:48:34;95176.72;;;13.48;84.71
9839;BME280;4958;48.150;11.506;2023-05-16T06:51:21;95176.72;;;13.55;83.18
9839;BME280;4958;48.150;11.506;2023-05-16T06:53:50;95183.69;;;13.48;83.70
9839;BME280;4958;48.150;11.506;2023-05-16T06:56:17;95182.38;;;13.26;84.89
9839;BME280;4958;48.150;11.506;2023-05-16T06:59:11;95184.94;;;13.32;84.96
9839;BME280;4958;48.150;11.506;2023-05-16T07:02:13;95185.94;;;13.38;84.61
9839;BME280;4958;48.150;11.506;2023-05-16T07:05:02;95181.75;;;13.43;85.43
9839;BME280;4958;48.150;11.506;2023-05-16T07:07:28;95179.28;;;13.62;84.30
9839;BME280;4958;48.150;11.506;2023-05-16T07:09:54;95175.91;;;13.61;84.28
9839;BME280;4958;48.150;11.506;2023-05-16T07:12:21;95173.47;;;13.66;84.20
9839;BME280;4958;48.150;11.506;2023-05-16T07:14:49;95175.25;;;13.72;83.08
9839;BME280;4958;48.150;11.506;2023-05-16T07:17:18;95173.47;;;13.73;82.44
9839;BME280;4958;48.150;11.506;2023-05-16T07:19:45;95178.84;;;13.71;83.53
9839;BME280;4958;48.150;11.506;2023-05-16T07:22:11;95180.63;;;13.71;82.96
9839;BME280;4958;48.150;11.506;2023-05-16T07:24:37;95183.41;;;13.76;82.88
9839;BME280;4958;48.150;11.506;2023-05-16T07:27:04;95180.03;;;13.69;83.32
9839;BME280;4958;48.150;11.506;2023-05-16T07:29:33;95173.66;;;13.71;82.71
9839;BME280;4958;48.150;11.506;2023-05-16T07:32:03;95182.03;;;13.73;82.40
9839;BME280;4958;48.150;11.506;2023-05-16T07:34:30;95186.00;;;13.69;82.13
9839;BME280;4958;48.150;11.506;2023-05-16T07:36:56;95183.41;;;13.69;82.32
9839;BME280;4958;48.150;11.506;2023-05-16T07:39:23;95183.81;;;13.73;82.57
9839;BME280;4958;48.150;11.506;2023-05-16T07:41:50;95184.81;;;13.72;82.96
9839;BME280;4958;48.150;11.506;2023-05-16T07:44:16;95189.59;;;13.68;83.39
9839;BME280;4958;48.150;11.506;2023-05-16T07:46:53;95184.00;;;13.71;83.39
9839;BME280;4958;48.150;11.506;2023-05-16T07:49:21;95184.81;;;13.72;83.05
9839;BME280;4958;48.150;11.506;2023-05-16T07:51:47;95198.94;;;13.69;83.57
9839;BME280;4958;48.150;11.506;2023-05-16T07:54:13;95197.22;;;13.57;84.94
9839;BME280;4958;48.150;11.506;2023-05-16T07:56:40;95202.38;;;13.50;85.73
9839;BME280;4958;48.150;11.506;2023-05-16T07:59:06;95211.78;;;13.38;87.84
9839;BME280;4958;48.150;11.506;2023-05-16T08:01:37;95216.16;;;13.31;89.25
9839;BME280;4958;48.150;11.506;2023-05-16T08:04:04;95217.19;;;13.23;89.38
9839;BME280;4958;48.150;11.506;2023-05-16T08:06:32;95215.16;;;13.32;88.66
9839;BME280;4958;48.150;11.506;2023-05-16T08:08:59;95215.16;;;13.38;88.89
9839;BME280;4958;48.150;11.506;2023-05-16T08:11:25;95214.97;;;13.46;89.59
9839;BME280;4958;48.150;11.506;2023-05-16T08:14:02;95216.50;;;13.54;90.09
9839;BME280;4958;48.150;11.506;2023-05-16T08:16:30;95220.28;;;13.52;91.98
9839;BME280;4958;48.150;11.506;2023-05-16T08:18:56;95222.47;;;13.55;90.80
9839;BME280;4958;48.150;11.506;2023-05-16T08:21:23;95224.28;;;13.54;90.62
9839;BME280;4958;48.150;11.506;2023-05-16T08:23:53;95222.88;;;13.52;90.76
9839;BME280;4958;48.150;11.506;2023-05-16T08:26:22;95216.31;;;13.56;89.70
9839;BME280;4958;48.150;11.506;2023-05-16T08:28:48;95227.84;;;13.53;88.81
9839;BME280;4958;48.150;11.506;2023-05-16T08:31:17;95229.25;;;13.56;88.92
9839;BME280;4958;48.150;11.506;2023-05-16T08:33:44;95227.84;;;13.53;89.07
9839;BME280;4958;48.150;11.506;2023-05-16T08:36:10;95224.28;;;13.54;89.75
9839;BME280;4958;48.150;11.506;2023-05-16T08:38:39;95226.84;;;13.54;90.60
9839;BME280;4958;48.150;11.506;2023-05-16T08:41:21;95225.06;;;13.55;90.65
9839;BME280;4958;48.150;11.506;2023-05-16T08:44:06;95221.28;;;13.57;91.13
9839;BME280;4958;48.150;11.506;2023-05-16T08:46:41;95224.25;;;13.61;91.59
9839;BME280;4958;48.150;11.506;2023-05-16T08:49:24;95223.84;;;13.64;91.64
9839;BME280;4958;48.150;11.506;2023-05-16T08:52:09;95225.22;;;13.66;92.76
9839;BME280;4958;48.150;11.506;2023-05-16T08:54:43;95225.44;;;13.65;93.93
9839;BME280;4958;48.150;11.506;2023-05-16T08:57:42;95232.22;;;13.66;94.11
9839;BME280;4958;48.150;11.506;2023-05-16T09:00:29;95224.81;;;13.69;92.62
9839;BME280;4958;48.150;11.506;2023-05-16T09:03:07;95226.59;;;13.75;92.47
9839;BME280;4958;48.150;11.506;2023-05-16T09:05:49;95219.63;;;13.82;93.28
9839;BME280;4958;48.150;11.506;2023-05-16T09:08:25;95213.81;;;13.87;93.94
9839;BME280;4958;48.150;11.506;2023-05-16T09:10:54;95221.13;;;13.97;94.32
9839;BME280;4958;48.150;11.506;2023-05-16T09:13:35;95213.50;;;14.08;93.51
9839;BME280;4958;48.150;11.506;2023-05-16T09:16:23;95207.69;;;14.20;94.17
9839;BME280;4958;48.150;11.506;2023-05-16T09:19:11;95197.53;;;14.18;91.45
9839;BME280;4958;48.150;11.506;2023-05-16T09:22:48;95203.44;;;14.25;91.47
9839;BME280;4958;48.150;11.506;2023-05-16T09:25:30;95198.94;;;14.14;89.21
9839;BME280;4958;48.150;11.506;2023-05-16T09:28:09;95206.53;;;14.09;90.24
9839;BME280;4958;48.150;11.506;2023-05-16T09:30:56;95206.53;;;14.09;89.92
9839;BME280;4958;48.150;11.506;2023-05-16T09:33:42;95208.31;;;14.08;91.41
9839;BME280;4958;48.150;11.506;2023-05-16T09:36:22;95201.34;;;14.09;93.14
9839;BME280;4958;48.150;11.506;2023-05-16T09:38:58;95207.72;;;14.13;94.62
9839;BME280;4958;48.150;11.506;2023-05-16T09:41:38;95194.56;;;14.14;96.98
9839;BME280;4958;48.150;11.506;2023-05-16T09:44:30;95196.16;;;14.15;99.96
9839;BME280;4958;48.150;11.506;2023-05-16T09:47:09;95206.69;;;14.21;96.85
9839;BME280;4958;48.150;11.506;2023-05-16T09:49:45;95208.88;;;14.24;97.11
9839;BME280;4958;48.150;11.506;2023-05-16T09:52:13;95210.78;;;14.35;94.98
9839;BME280;4958;48.150;11.506;2023-05-16T09:54:58;95212.16;;;14.37;95.03
9839;BME280;4958;48.150;11.506;2023-05-16T09:57:36;95202.31;;;14.21;99.20
9839;BME280;4958;48.150;11.506;2023-05-16T10:00:28;95207.91;;;14.18;97.66
9839;BME280;4958;48.150;11.506;2023-05-16T10:02:57;95209.44;;;14.26;96.06
9839;BME280;4958;48.150;11.506;2023-05-16T10:05:42;95215.19;;;14.28;98.88
9839;BME280;4958;48.150;11.506;2023-05-16T10:08:11;95204.22;;;14.32;97.44
9839;BME280;4958;48.150;11.506;2023-05-16T10:10:40;95213.97;;;14.30;94.24
9839;BME280;4958;48.150;11.506;2023-05-16T10:13:27;95208.09;;;14.16;95.74
9839;BME280;4958;48.150;11.506;2023-05-16T10:15:57;95211.06;;;14.20;96.16
9839;BME280;4958;48.150;11.506;2023-05-16T10:18:29;95215.28;;;14.14;97.41
9839;BME280;4958;48.150;11.506;2023-05-16T10:21:00;95215.72;;;14.05;97.73
9839;BME280;4958;48.150;11.506;2023-05-16T10:23:32;95224.50;;;14.04;95.86
9839;BME280;4958;48.150;11.506;2023-05-16T10:26:03;95226.84;;;14.12;95.64
9839;BME280;4958;48.150;11.506;2023-05-16T10:28:33;95219.03;;;14.18;95.66
9839;BME280;4958;48.150;11.506;2023-05-16T10:31:00;95224.22;;;14.18;96.01
9839;BME280;4958;48.150;11.506;2023-05-16T10:33:29;95227.00;;;14.17;97.06
9839;BME280;4958;48.150;11.506;2023-05-16T10:35:58;95241.75;;;14.16;96.96
9839;BME280;4958;48.150;11.506;2023-05-16T10:38:28;95235.00;;;14.15;97.72
9839;BME280;4958;48.150;11.506;2023-05-16T10:41:08;95234.41;;;14.07;98.72
9839;BME280;4958;48.150;11.506;2023-05-16T10:44:00;95240.41;;;14.07;97.53
9839;BME280;4958;48.150;11.506;2023-05-16T10:46:30;95234.63;;;14.05;98.71
9839;BME280;4958;48.150;11.506;2023-05-16T10:49:18;95232.28;;;14.04;99.75
9839;BME280;4958;48.150;11.506;2023-05-16T10:52:10;95240.84;;;13.98;100.00
9839;BME280;4958;48.150;11.506;2023-05-16T10:54:39;95246.22;;;13.96;100.00
9839;BME280;4958;48.150;11.506;2023-05-16T10:57:10;95244.22;;;13.98;100.00
9839;BME280;4958;48.150;11.506;2023-05-16T11:02:27;95234.06;;;13.97;100.00
9839;BME280;4958;48.150;11.506;2023-05-16T11:05:05;95226.34;;;13.90;100.00
9839;BME280;4958;48.150;11.506;2023-05-16T11:07:37;95227.75;;;13.86;100.00
9839;BME280;4958;48.150;11.506;2023-05-16T11:10:08;95227.97;;;13.78;100.00
9839;BME280;4958;48.150;11.506;2023-05-16T11:12:47;95234.97;;;13.71;100.00
9839;BME280;4958;48.150;11.506;2023-05-16T11:15:40;95234.41;;;13.62;100.00
9839;BME280;4958;48.150;11.506;2023-05-16T11:18:20;95235.19;;;13.63;100.00
9839;BME280;4958;48.150;11.506;2023-05-16T11:21:04;95241.97;;;13.51;100.00
9839;BME280;4958;48.150;11.506;2023-05-16T11:23:39;95243.75;;;13.57;100.00
9839;BME280;4958;48.150;11.506;2023-05-16T11:26:05;95252.31;;;13.64;100.00
9839;BME280;4958;48.150;11.506;2023-05-16T11:28:32;95248.94;;;13.50;100.00
9839;BME280;4958;48.150;11.506;2023-05-16T11:31:02;95251.72;;;13.48;100.00
9839;BME280;4958;48.150;11.506;2023-05-16T11:33:48;95244.38;;;13.52;100.00
9839;BME280;4958;48.150;11.506;2023-05-16T11:36:31;95233.81;;;13.60;100.00
9839;BME280;4958;48.150;11.506;2023-05-16T11:39:15;95226.00;;;13.67;100.00
9839;BME280;4958;48.150;11.506;2023-05-16T11:41:44;95215.25;;;13.70;100.00
9839;BME280;4958;48.150;11.506;2023-05-16T11:44:19;95215.47;;;13.68;100.00
9839;BME280;4958;48.150;11.506;2023-05-16T11:46:47;95213.47;;;13.70;100.00
9839;BME280;4958;48.150;11.506;2023-05-16T11:49:14;95214.47;;;13.69;100.00
9839;BME280;4958;48.150;11.506;2023-05-16T11:52:14;95220.81;;;13.73;100.00
9839;BME280;4958;48.150;11.506;2023-05-16T11:54:33;95224.81;;;13.69;100.00
9839;BME280;4958;48.150;11.506;2023-05-16T11:57:01;95226.00;;;13.67;100.00
9839;BME280;4958;48.150;11.506;2023-05-16T11:59:36;95228.97;;;13.77;100.00
9839;BME280;4958;48.150;11.506;2023-05-16T12:02:06;95219.75;;;13.94;100.00
9839;BME280;4958;48.150;11.506;2023-05-16T12:04:50;95217.69;;;14.09;100.00
9839;BME280;4958;48.150;11.506;2023-05-16T12:07:50;95213.47;;;14.15;100.00
9839;BME280;4958;48.150;11.506;2023-05-16T12:10:20;95216.97;;;14.34;100.00
9839;BME280;4958;48.150;11.506;2023-05-16T12:12:52;95219.69;;;14.45;100.00
9839;BME280;4958;48.150;11.506;2023-05-16T12:15:30;95213.28;;;14.55;100.00
9839;BME280;4958;48.150;11.506;2023-05-16T12:18:00;95215.66;;;14.56;100.00
9839;BME280;4958;48.150;11.506;2023-05-16T12:20:50;95212.22;;;14.62;99.75
9839;BME280;4958;48.150;11.506;2023-05-16T12:23:33;95207.56;;;14.71;98.71
9839;BME280;4958;48.150;11.506;2023-05-16T12:26:24;95210.25;;;14.82;98.36
9839;BME280;4958;48.150;11.506;2023-05-16T12:28:58;95199.25;;;14.87;100.00
9839;BME280;4958;48.150;11.506;2023-05-16T12:31:42;95209.00;;;14.92;98.90
9839;BME280;4958;48.150;11.506;2023-05-16T12:34:18;95200.38;;;14.98;96.99
9839;BME280;4958;48.150;11.506;2023-05-16T12:36:53;95208.88;;;15.05;97.08
9839;BME280;4958;48.150;11.506;2023-05-16T12:39:35;95206.16;;;15.00;95.86
9839;BME280;4958;48.150;11.506;2023-05-16T12:42:17;95207.25;;;15.10;96.91
9839;BME280;4958;48.150;11.506;2023-05-16T12:45:00;95203.38;;;15.19;99.50
9839;BME280;4958;48.150;11.506;2023-05-16T12:47:44;95199.31;;;15.24;98.77
9839;BME280;4958;48.150;11.506;2023-05-16T12:50:19;95204.88;;;15.27;98.34
9839;BME280;4958;48.150;11.506;2023-05-16T12:52:51;95204.25;;;15.32;97.52
9839;BME280;4958;48.150;11.506;2023-05-16T12:55:50;95203.44;;;15.31;100.00
9839;BME280;4958;48.150;11.506;2023-05-16T12:58:29;95199.19;;;15.18;99.07
9839;BME280;4958;48.150;11.506;2023-05-16T13:01:07;95204.50;;;15.24;98.41
9839;BME280;4958;48.150;11.506;2023-05-16T13:03:46;95202.72;;;15.24;99.59
9839;BME280;4958;48.150;11.506;2023-05-16T13:06:17;95200.06;;;15.31;99.01
9839;BME280;4958;48.150;11.506;2023-05-16T13:08:57;95195.09;;;15.29;100.00
9839;BME280;4958;48.150;11.506;2023-05-16T13:11:47;95192.00;;;15.39;100.00
9839;BME280;4958;48.150;11.506;2023-05-16T13:14:31;95185.50;;;15.48;100.00
9839;BME280;4958;48.150;11.506;2023-05-16T13:17:15;95189.28;;;15.52;100.00
9839;BME280;4958;48.150;11.506;2023-05-16T13:19:55;95204.47;;;15.48;100.00
9839;BME280;4958;48.150;11.506;2023-05-16T13:22:31;95203.09;;;15.46;100.00
9839;BME280;4958;48.150;11.506;2023-05-16T13:31:51;95217.19;;;14.89;100.00
9839;BME280;4958;48.150;11.506;2023-05-16T13:34:44;95215.25;;;14.59;95.25
9839;BME280;4958;48.150;11.506;2023-05-16T13:37:24;95207.41;;;14.34;96.96
9839;BME280;4958;48.150;11.506;2023-05-16T13:40:13;95192.78;;;14.08;98.92
9839;BME280;4958;48.150;11.506;2023-05-16T13:42:54;95205.44;;;13.92;100.00
9839;BME280;4958;48.150;11.506;2023-05-16T13:45:29;95213.47;;;13.77;100.00
9839;BME280;4958;48.150;11.506;2023-05-16T13:48:17;95224.25;;;13.61;100.00
9839;BME280;4958;48.150;11.506;2023-05-16T13:50:46;95234.00;;;13.59;100.00
9839;BME280;4958;48.150;11.506;2023-05-16T13:53:33;95242.38;;;13.54;100.00
9839;BME280;4958;48.150;11.506;2023-05-16T13:56:00;95235.66;;;13.40;100.00
9839;BME280;4958;48.150;11.506;2023-05-16T13:58:27;95241.81;;;13.45;100.00